sensor_id;sensor_type;location;lat;lon;timestamp;P1;durP1;ratioP1;P2;durP2;ratioP2
69280;SDS011;56392;51.082;17.080;2023-09-19T00:02:37;8.53;;;3.10;;
69280;SDS011;56392;51.082;17.080;2023-09-19T00:08:01;10.05;;;2.88;;
69280;SDS011;56392;51.082;17.080;2023-09-19T00:13:25;7.88;;;2.45;;
69280;SDS011;56392;51.082;17.080;2023-09-19T00:18:51;7.47;;;2.13;;
69280;SDS011;56392;51.082;17.080;2023-09-19T00:24:14;8.02;;;2.08;;
69280;SDS011;56392;51.082;17.080;2023-09-19T00:29:39;8.20;;;1.98;;
69280;SDS011;56392;51.082;17.080;2023-09-19T00:35:04;8.37;;;1.93;;
69280;SDS011;56392;51.082;17.080;2023-09-19T00:40:29;6.50;;;1.70;;
69280;SDS011;56392;51.082;17.080;2023-09-19T00:45:55;7.65;;;1.85;;
69280;SDS011;56392;51.082;17.080;2023-09-19T00:51:20;7.93;;;2.10;;
69280;SDS011;56392;51.082;17.080;2023-09-19T00:56:44;7.10;;;1.80;;
69280;SDS011;56392;51.082;17.080;2023-09-19T01:02:10;6.63;;;2.00;;
69280;SDS011;56392;51.082;17.080;2023-09-19T01:07:37;6.25;;;1.80;;
69280;SDS011;56392;51.082;17.080;2023-09-19T01:13:04;5.43;;;1.57;;
69280;SDS011;56392;51.082;17.080;2023-09-19T01:18:39;7.85;;;1.88;;
69280;SDS011;56392;51.082;17.080;2023-09-19T01:30:08;5.40;;;1.40;;
69280;SDS011;56392;51.082;17.080;2023-09-19T01:35:32;9.97;;;1.87;;
69280;SDS011;56392;51.082;17.080;2023-09-19T01:40:57;14.98;;;2.45;;
69280;SDS011;56392;51.082;17.080;2023-09-19T01:46:29;14.07;;;2.38;;
69280;SDS011;56392;51.082;17.080;2023-09-19T01:52:05;7.97;;;1.90;;
69280;SDS011;56392;51.082;17.080;2023-09-19T01:57:35;7.63;;;1.55;;
69280;SDS011;56392;51.082;17.080;2023-09-19T02:03:09;6.97;;;1.60;;
69280;SDS011;56392;51.082;17.080;2023-09-19T02:08:37;5.70;;;1.70;;
69280;SDS011;56392;51.082;17.080;2023-09-19T02:14:00;7.60;;;1.63;;
69280;SDS011;56392;51.082;17.080;2023-09-19T02:19:27;7.07;;;1.70;;
69280;SDS011;56392;51.082;17.080;2023-09-19T02:24:52;7.27;;;1.83;;
69280;SDS011;56392;51.082;17.080;2023-09-19T02:30:15;8.97;;;1.80;;
69280;SDS011;56392;51.082;17.080;2023-09-19T02:35:41;8.05;;;1.83;;
69280;SDS011;56392;51.082;17.080;2023-09-19T02:41:04;8.57;;;2.45;;
69280;SDS011;56392;51.082;17.080;2023-09-19T02:46:27;7.50;;;2.40;;
69280;SDS011;56392;51.082;17.080;2023-09-19T02:51:52;8.45;;;2.03;;
69280;SDS011;56392;51.082;17.080;2023-09-19T02:57:15;9.88;;;2.30;;
69280;SDS011;56392;51.082;17.080;2023-09-19T03:02:39;6.87;;;2.30;;
69280;SDS011;56392;51.082;17.080;2023-09-19T03:08:04;6.93;;;2.13;;
69280;SDS011;56392;51.082;17.080;2023-09-19T03:13:28;10.68;;;2.45;;
69280;SDS011;56392;51.082;17.080;2023-09-19T03:18:52;9.10;;;2.07;;
69280;SDS011;56392;51.082;17.080;2023-09-19T03:24:16;7.30;;;2.17;;
69280;SDS011;56392;51.082;17.080;2023-09-19T03:29:39;8.77;;;3.25;;
69280;SDS011;56392;51.082;17.080;2023-09-19T03:35:03;8.05;;;3.85;;
69280;SDS011;56392;51.082;17.080;2023-09-19T03:40:28;8.27;;;3.90;;
69280;SDS011;56392;51.082;17.080;2023-09-19T03:45:51;10.02;;;5.28;;
69280;SDS011;56392;51.082;17.080;2023-09-19T03:51:15;8.73;;;4.63;;
69280;SDS011;56392;51.082;17.080;2023-09-19T03:56:39;8.10;;;3.77;;
69280;SDS011;56392;51.082;17.080;2023-09-19T04:02:04;8.52;;;3.22;;
69280;SDS011;56392;51.082;17.080;2023-09-19T04:07:33;7.53;;;2.35;;
69280;SDS011;56392;51.082;17.080;2023-09-19T04:12:57;9.47;;;2.53;;
69280;SDS011;56392;51.082;17.080;2023-09-19T04:18:20;10.73;;;3.03;;
69280;SDS011;56392;51.082;17.080;2023-09-19T04:23:44;9.68;;;3.40;;
69280;SDS011;56392;51.082;17.080;2023-09-19T04:29:09;10.73;;;4.82;;
69280;SDS011;56392;51.082;17.080;2023-09-19T04:34:34;8.43;;;4.07;;
69280;SDS011;56392;51.082;17.080;2023-09-19T04:39:58;11.23;;;4.25;;
69280;SDS011;56392;51.082;17.080;2023-09-19T04:45:22;11.15;;;3.15;;
69280;SDS011;56392;51.082;17.080;2023-09-19T04:50:45;8.30;;;3.50;;
69280;SDS011;56392;51.082;17.080;2023-09-19T04:56:11;10.73;;;4.50;;
69280;SDS011;56392;51.082;17.080;2023-09-19T05:01:36;11.65;;;5.20;;
69280;SDS011;56392;51.082;17.080;2023-09-19T05:06:59;10.20;;;3.60;;
69280;SDS011;56392;51.082;17.080;2023-09-19T05:12:25;8.33;;;5.13;;
69280;SDS011;56392;51.082;17.080;2023-09-19T05:17:50;11.75;;;6.70;;
69280;SDS011;56392;51.082;17.080;2023-09-19T05:23:16;13.70;;;8.32;;
69280;SDS011;56392;51.082;17.080;2023-09-19T05:28:42;11.93;;;7.33;;
69280;SDS011;56392;51.082;17.080;2023-09-19T05:34:06;10.90;;;5.25;;
69280;SDS011;56392;51.082;17.080;2023-09-19T05:39:31;11.65;;;3.50;;
69280;SDS011;56392;51.082;17.080;2023-09-19T05:44:54;11.80;;;4.13;;
69280;SDS011;56392;51.082;17.080;2023-09-19T05:50:19;13.00;;;5.40;;
69280;SDS011;56392;51.082;17.080;2023-09-19T05:55:42;10.18;;;3.60;;
69280;SDS011;56392;51.082;17.080;2023-09-19T06:01:05;13.37;;;4.70;;
69280;SDS011;56392;51.082;17.080;2023-09-19T06:06:30;9.70;;;3.50;;
69280;SDS011;56392;51.082;17.080;2023-09-19T06:11:55;11.77;;;3.00;;
69280;SDS011;56392;51.082;17.080;2023-09-19T06:17:18;9.90;;;3.45;;
69280;SDS011;56392;51.082;17.080;2023-09-19T06:22:45;10.20;;;3.07;;
69280;SDS011;56392;51.082;17.080;2023-09-19T06:28:08;8.45;;;2.67;;
69280;SDS011;56392;51.082;17.080;2023-09-19T06:33:33;9.75;;;2.97;;
69280;SDS011;56392;51.082;17.080;2023-09-19T06:38:57;8.40;;;2.43;;
69280;SDS011;56392;51.082;17.080;2023-09-19T06:44:21;7.70;;;2.38;;
69280;SDS011;56392;51.082;17.080;2023-09-19T06:49:45;10.10;;;2.33;;
69280;SDS011;56392;51.082;17.080;2023-09-19T06:55:10;10.83;;;2.73;;
69280;SDS011;56392;51.082;17.080;2023-09-19T07:00:34;8.87;;;2.20;;
69280;SDS011;56392;51.082;17.080;2023-09-19T07:05:58;8.23;;;2.60;;
69280;SDS011;56392;51.082;17.080;2023-09-19T07:11:23;8.55;;;2.20;;
69280;SDS011;56392;51.082;17.080;2023-09-19T07:16:46;6.27;;;1.97;;
69280;SDS011;56392;51.082;17.080;2023-09-19T07:22:10;8.77;;;2.20;;
69280;SDS011;56392;51.082;17.080;2023-09-19T07:27:35;8.30;;;1.90;;
69280;SDS011;56392;51.082;17.080;2023-09-19T07:32:58;8.47;;;2.00;;
69280;SDS011;56392;51.082;17.080;2023-09-19T07:38:24;8.57;;;2.20;;
69280;SDS011;56392;51.082;17.080;2023-09-19T07:43:49;6.40;;;1.70;;
69280;SDS011;56392;51.082;17.080;2023-09-19T07:49:14;7.07;;;2.00;;
69280;SDS011;56392;51.082;17.080;2023-09-19T07:54:39;7.23;;;1.80;;
69280;SDS011;56392;51.082;17.080;2023-09-19T08:00:04;7.60;;;1.92;;
69280;SDS011;56392;51.082;17.080;2023-09-19T08:05:29;9.07;;;2.22;;
69280;SDS011;56392;51.082;17.080;2023-09-19T08:10:52;7.47;;;2.00;;
69280;SDS011;56392;51.082;17.080;2023-09-19T08:16:18;5.93;;;1.60;;
69280;SDS011;56392;51.082;17.080;2023-09-19T08:21:43;7.78;;;2.03;;
69280;SDS011;56392;51.082;17.080;2023-09-19T08:27:09;7.10;;;1.80;;
69280;SDS011;56392;51.082;17.080;2023-09-19T08:32:35;7.93;;;1.92;;
69280;SDS011;56392;51.082;17.080;2023-09-19T08:37:58;7.38;;;1.83;;
69280;SDS011;56392;51.082;17.080;2023-09-19T08:43:27;5.00;;;1.80;;
69280;SDS011;56392;51.082;17.080;2023-09-19T08:48:58;7.77;;;2.00;;
69280;SDS011;56392;51.082;17.080;2023-09-19T08:54:28;6.30;;;2.00;;
69280;SDS011;56392;51.082;17.080;2023-09-19T08:59:59;6.65;;;1.83;;
69280;SDS011;56392;51.082;17.080;2023-09-19T09:05:27;7.43;;;1.80;;
69280;SDS011;56392;51.082;17.080;2023-09-19T09:10:51;8.80;;;1.98;;
69280;SDS011;56392;51.082;17.080;2023-09-19T09:16:17;7.00;;;2.15;;
69280;SDS011;56392;51.082;17.080;2023-09-19T09:21:44;7.63;;;2.07;;
69280;SDS011;56392;51.082;17.080;2023-09-19T09:27:09;7.30;;;2.00;;
69280;SDS011;56392;51.082;17.080;2023-09-19T09:32:37;6.30;;;1.98;;
69280;SDS011;56392;51.082;17.080;2023-09-19T09:38:03;6.37;;;1.93;;
69280;SDS011;56392;51.082;17.080;2023-09-19T09:43:30;6.97;;;1.93;;
69280;SDS011;56392;51.082;17.080;2023-09-19T09:49:01;6.00;;;1.98;;
69280;SDS011;56392;51.082;17.080;2023-09-19T09:54:39;11.15;;;1.98;;
69280;SDS011;56392;51.082;17.080;2023-09-19T10:00:21;8.10;;;1.97;;
69280;SDS011;56392;51.082;17.080;2023-09-19T10:05:45;6.35;;;1.73;;
69280;SDS011;56392;51.082;17.080;2023-09-19T10:11:16;7.00;;;1.85;;
69280;SDS011;56392;51.082;17.080;2023-09-19T10:16:44;7.70;;;1.77;;
69280;SDS011;56392;51.082;17.080;2023-09-19T10:22:08;6.45;;;1.65;;
69280;SDS011;56392;51.082;17.080;2023-09-19T10:27:34;6.90;;;1.80;;
69280;SDS011;56392;51.082;17.080;2023-09-19T10:33:00;6.77;;;1.87;;
69280;SDS011;56392;51.082;17.080;2023-09-19T10:38:25;6.50;;;2.10;;
69280;SDS011;56392;51.082;17.080;2023-09-19T10:43:51;6.57;;;1.70;;
69280;SDS011;56392;51.082;17.080;2023-09-19T10:49:17;5.38;;;1.50;;
69280;SDS011;56392;51.082;17.080;2023-09-19T10:54:41;7.60;;;1.87;;
69280;SDS011;56392;51.082;17.080;2023-09-19T11:00:12;5.80;;;1.55;;
69280;SDS011;56392;51.082;17.080;2023-09-19T11:05:59;7.72;;;1.70;;
69280;SDS011;56392;51.082;17.080;2023-09-19T11:11:39;6.63;;;1.70;;
69280;SDS011;56392;51.082;17.080;2023-09-19T11:23:28;4.63;;;1.55;;
69280;SDS011;56392;51.082;17.080;2023-09-19T11:28:55;6.93;;;1.73;;
69280;SDS011;56392;51.082;17.080;2023-09-19T11:34:47;7.27;;;1.50;;
69280;SDS011;56392;51.082;17.080;2023-09-19T11:40:15;6.18;;;1.65;;
69280;SDS011;56392;51.082;17.080;2023-09-19T11:46:01;5.30;;;1.25;;
69280;SDS011;56392;51.082;17.080;2023-09-19T11:51:37;4.83;;;1.27;;
69280;SDS011;56392;51.082;17.080;2023-09-19T11:57:06;6.13;;;1.40;;
69280;SDS011;56392;51.082;17.080;2023-09-19T12:02:32;5.20;;;1.40;;
69280;SDS011;56392;51.082;17.080;2023-09-19T12:08:04;5.57;;;1.20;;
69280;SDS011;56392;51.082;17.080;2023-09-19T12:13:30;5.00;;;1.30;;
69280;SDS011;56392;51.082;17.080;2023-09-19T12:18:56;4.35;;;1.20;;
69280;SDS011;56392;51.082;17.080;2023-09-19T12:24:20;5.20;;;1.20;;
69280;SDS011;56392;51.082;17.080;2023-09-19T12:29:46;5.37;;;1.20;;
69280;SDS011;56392;51.082;17.080;2023-09-19T12:35:26;5.85;;;1.35;;
69280;SDS011;56392;51.082;17.080;2023-09-19T12:40:51;4.85;;;1.25;;
69280;SDS011;56392;51.082;17.080;2023-09-19T12:46:19;5.23;;;1.60;;
69280;SDS011;56392;51.082;17.080;2023-09-19T12:51:47;4.57;;;1.25;;
69280;SDS011;56392;51.082;17.080;2023-09-19T12:57:22;4.53;;;1.30;;
69280;SDS011;56392;51.082;17.080;2023-09-19T13:08:43;5.10;;;1.27;;
69280;SDS011;56392;51.082;17.080;2023-09-19T13:14:14;5.97;;;1.35;;
69280;SDS011;56392;51.082;17.080;2023-09-19T13:19:43;5.50;;;1.33;;
69280;SDS011;56392;51.082;17.080;2023-09-19T13:25:12;5.17;;;1.50;;
69280;SDS011;56392;51.082;17.080;2023-09-19T13:30:39;4.40;;;1.10;;
69280;SDS011;56392;51.082;17.080;2023-09-19T13:36:06;7.15;;;1.42;;
69280;SDS011;56392;51.082;17.080;2023-09-19T13:41:29;6.90;;;1.23;;
69280;SDS011;56392;51.082;17.080;2023-09-19T13:46:53;5.63;;;1.35;;
69280;SDS011;56392;51.082;17.080;2023-09-19T13:52:19;6.13;;;1.42;;
69280;SDS011;56392;51.082;17.080;2023-09-19T13:57:45;4.10;;;1.17;;
69280;SDS011;56392;51.082;17.080;2023-09-19T14:03:11;5.00;;;1.30;;
69280;SDS011;56392;51.082;17.080;2023-09-19T14:08:35;4.40;;;1.10;;
69280;SDS011;56392;51.082;17.080;2023-09-19T14:13:59;4.23;;;1.20;;
69280;SDS011;56392;51.082;17.080;2023-09-19T14:19:22;6.47;;;1.30;;
69280;SDS011;56392;51.082;17.080;2023-09-19T14:24:47;4.93;;;1.20;;
69280;SDS011;56392;51.082;17.080;2023-09-19T14:30:10;4.63;;;1.27;;
69280;SDS011;56392;51.082;17.080;2023-09-19T14:35:36;6.40;;;1.57;;
69280;SDS011;56392;51.082;17.080;2023-09-19T14:41:01;4.25;;;1.20;;
69280;SDS011;56392;51.082;17.080;2023-09-19T14:46:25;5.47;;;1.40;;
69280;SDS011;56392;51.082;17.080;2023-09-19T14:51:48;6.33;;;1.37;;
69280;SDS011;56392;51.082;17.080;2023-09-19T14:57:12;6.13;;;1.40;;
69280;SDS011;56392;51.082;17.080;2023-09-19T15:02:36;4.45;;;1.17;;
69280;SDS011;56392;51.082;17.080;2023-09-19T15:07:59;4.30;;;1.20;;
69280;SDS011;56392;51.082;17.080;2023-09-19T15:13:25;5.13;;;1.33;;
69280;SDS011;56392;51.082;17.080;2023-09-19T15:18:50;6.68;;;1.42;;
69280;SDS011;56392;51.082;17.080;2023-09-19T15:24:15;4.63;;;1.30;;
69280;SDS011;56392;51.082;17.080;2023-09-19T15:29:40;4.90;;;1.60;;
69280;SDS011;56392;51.082;17.080;2023-09-19T15:35:07;8.50;;;1.60;;
69280;SDS011;56392;51.082;17.080;2023-09-19T15:40:33;5.53;;;1.27;;
69280;SDS011;56392;51.082;17.080;2023-09-19T15:45:57;5.10;;;1.27;;
69280;SDS011;56392;51.082;17.080;2023-09-19T15:51:23;4.78;;;1.33;;
69280;SDS011;56392;51.082;17.080;2023-09-19T15:56:46;4.88;;;1.10;;
69280;SDS011;56392;51.082;17.080;2023-09-19T16:02:11;4.60;;;1.20;;
69280;SDS011;56392;51.082;17.080;2023-09-19T16:07:38;5.60;;;1.30;;
69280;SDS011;56392;51.082;17.080;2023-09-19T16:13:02;4.40;;;1.20;;
69280;SDS011;56392;51.082;17.080;2023-09-19T16:18:28;8.23;;;1.38;;
69280;SDS011;56392;51.082;17.080;2023-09-19T16:23:53;5.43;;;1.40;;
69280;SDS011;56392;51.082;17.080;2023-09-19T16:29:16;4.43;;;1.40;;
69280;SDS011;56392;51.082;17.080;2023-09-19T16:34:41;6.10;;;1.20;;
69280;SDS011;56392;51.082;17.080;2023-09-19T16:40:05;6.63;;;1.40;;
69280;SDS011;56392;51.082;17.080;2023-09-19T16:45:30;5.95;;;1.20;;
69280;SDS011;56392;51.082;17.080;2023-09-19T16:50:54;5.10;;;1.40;;
69280;SDS011;56392;51.082;17.080;2023-09-19T16:56:21;6.17;;;1.70;;
69280;SDS011;56392;51.082;17.080;2023-09-19T17:01:47;5.23;;;1.27;;
69280;SDS011;56392;51.082;17.080;2023-09-19T17:07:11;5.70;;;1.45;;
69280;SDS011;56392;51.082;17.080;2023-09-19T17:12:34;7.65;;;1.27;;
69280;SDS011;56392;51.082;17.080;2023-09-19T17:17:58;8.30;;;1.57;;
69280;SDS011;56392;51.082;17.080;2023-09-19T17:23:22;4.15;;;1.20;;
69280;SDS011;56392;51.082;17.080;2023-09-19T17:28:46;4.47;;;1.35;;
69280;SDS011;56392;51.082;17.080;2023-09-19T17:34:09;6.87;;;1.33;;
69280;SDS011;56392;51.082;17.080;2023-09-19T17:39:34;5.32;;;1.33;;
69280;SDS011;56392;51.082;17.080;2023-09-19T17:44:57;5.03;;;1.50;;
69280;SDS011;56392;51.082;17.080;2023-09-19T17:50:20;7.50;;;1.50;;
69280;SDS011;56392;51.082;17.080;2023-09-19T17:55:45;4.97;;;1.43;;
69280;SDS011;56392;51.082;17.080;2023-09-19T18:01:10;9.02;;;1.50;;
69280;SDS011;56392;51.082;17.080;2023-09-19T18:06:35;6.22;;;1.70;;
69280;SDS011;56392;51.082;17.080;2023-09-19T18:12:00;5.43;;;1.43;;
69280;SDS011;56392;51.082;17.080;2023-09-19T18:17:23;5.50;;;1.50;;
69280;SDS011;56392;51.082;17.080;2023-09-19T18:22:46;5.72;;;1.70;;
69280;SDS011;56392;51.082;17.080;2023-09-19T18:28:11;7.30;;;1.87;;
69280;SDS011;56392;51.082;17.080;2023-09-19T18:33:34;5.88;;;1.85;;
69280;SDS011;56392;51.082;17.080;2023-09-19T18:38:59;9.15;;;2.10;;
69280;SDS011;56392;51.082;17.080;2023-09-19T18:44:24;9.37;;;2.60;;
69280;SDS011;56392;51.082;17.080;2023-09-19T18:49:47;11.93;;;2.70;;
69280;SDS011;56392;51.082;17.080;2023-09-19T18:55:12;9.95;;;3.33;;
69280;SDS011;56392;51.082;17.080;2023-09-19T19:00:37;8.52;;;2.80;;
69280;SDS011;56392;51.082;17.080;2023-09-19T19:06:04;7.00;;;2.53;;
69280;SDS011;56392;51.082;17.080;2023-09-19T19:11:27;9.07;;;2.85;;
69280;SDS011;56392;51.082;17.080;2023-09-19T19:16:52;8.73;;;3.15;;
69280;SDS011;56392;51.082;17.080;2023-09-19T19:22:16;9.57;;;3.63;;
69280;SDS011;56392;51.082;17.080;2023-09-19T19:27:41;11.20;;;3.72;;
69280;SDS011;56392;51.082;17.080;2023-09-19T19:33:05;11.10;;;4.35;;
69280;SDS011;56392;51.082;17.080;2023-09-19T19:38:28;10.27;;;4.17;;
69280;SDS011;56392;51.082;17.080;2023-09-19T19:43:51;16.20;;;4.50;;
69280;SDS011;56392;51.082;17.080;2023-09-19T19:49:16;12.40;;;3.80;;
69280;SDS011;56392;51.082;17.080;2023-09-19T19:54:39;11.40;;;4.50;;
69280;SDS011;56392;51.082;17.080;2023-09-19T20:00:03;15.33;;;5.10;;
69280;SDS011;56392;51.082;17.080;2023-09-19T20:05:30;13.73;;;4.95;;
69280;SDS011;56392;51.082;17.080;2023-09-19T20:10:53;16.48;;;5.68;;
69280;SDS011;56392;51.082;17.080;2023-09-19T20:16:22;10.33;;;4.47;;
69280;SDS011;56392;51.082;17.080;2023-09-19T20:21:47;10.50;;;4.78;;
69280;SDS011;56392;51.082;17.080;2023-09-19T20:27:11;11.55;;;4.88;;
69280;SDS011;56392;51.082;17.080;2023-09-19T20:32:34;13.40;;;5.00;;
69280;SDS011;56392;51.082;17.080;2023-09-19T20:37:59;15.73;;;5.13;;
69280;SDS011;56392;51.082;17.080;2023-09-19T20:43:24;11.35;;;4.70;;
69280;SDS011;56392;51.082;17.080;2023-09-19T20:48:47;15.52;;;5.57;;
69280;SDS011;56392;51.082;17.080;2023-09-19T20:54:12;16.57;;;6.27;;
69280;SDS011;56392;51.082;17.080;2023-09-19T20:59:38;20.65;;;7.97;;
69280;SDS011;56392;51.082;17.080;2023-09-19T21:05:01;22.60;;;7.60;;
69280;SDS011;56392;51.082;17.080;2023-09-19T21:10:26;19.03;;;7.20;;
69280;SDS011;56392;51.082;17.080;2023-09-19T21:15:51;20.30;;;7.15;;
69280;SDS011;56392;51.082;17.080;2023-09-19T21:21:14;15.02;;;7.18;;
69280;SDS011;56392;51.082;17.080;2023-09-19T21:26:38;18.13;;;7.13;;
69280;SDS011;56392;51.082;17.080;2023-09-19T21:32:02;16.93;;;6.50;;
69280;SDS011;56392;51.082;17.080;2023-09-19T21:37:25;20.23;;;6.30;;
69280;SDS011;56392;51.082;17.080;2023-09-19T21:42:49;15.82;;;6.53;;
69280;SDS011;56392;51.082;17.080;2023-09-19T21:48:12;14.07;;;6.30;;
69280;SDS011;56392;51.082;17.080;2023-09-19T21:53:35;16.20;;;6.07;;
69280;SDS011;56392;51.082;17.080;2023-09-19T21:59:01;12.73;;;6.63;;
69280;SDS011;56392;51.082;17.080;2023-09-19T22:04:24;16.00;;;6.77;;
69280;SDS011;56392;51.082;17.080;2023-09-19T22:09:47;12.70;;;5.30;;
69280;SDS011;56392;51.082;17.080;2023-09-19T22:15:12;11.70;;;5.90;;
69280;SDS011;56392;51.082;17.080;2023-09-19T22:20:36;11.07;;;5.60;;
69280;SDS011;56392;51.082;17.080;2023-09-19T22:26:08;12.23;;;4.63;;
69280;SDS011;56392;51.082;17.080;2023-09-19T22:31:36;11.43;;;4.47;;
69280;SDS011;56392;51.082;17.080;2023-09-19T22:37:03;9.43;;;3.90;;
69280;SDS011;56392;51.082;17.080;2023-09-19T22:42:26;8.97;;;4.10;;
69280;SDS011;56392;51.082;17.080;2023-09-19T22:47:52;11.95;;;4.10;;
69280;SDS011;56392;51.082;17.080;2023-09-19T22:53:19;10.63;;;3.92;;
69280;SDS011;56392;51.082;17.080;2023-09-19T22:58:43;9.93;;;3.53;;
69280;SDS011;56392;51.082;17.080;2023-09-19T23:04:08;12.55;;;3.70;;
69280;SDS011;56392;51.082;17.080;2023-09-19T23:09:36;11.95;;;3.40;;
69280;SDS011;56392;51.082;17.080;2023-09-19T23:15:00;7.83;;;3.40;;
69280;SDS011;56392;51.082;17.080;2023-09-19T23:20:34;8.67;;;3.20;;
69280;SDS011;56392;51.082;17.080;2023-09-19T23:26:00;12.35;;;3.58;;
69280;SDS011;56392;51.082;17.080;2023-09-19T23:31:27;10.32;;;3.42;;
69280;SDS011;56392;51.082;17.080;2023-09-19T23:36:52;7.93;;;3.00;;
69280;SDS011;56392;51.082;17.080;2023-09-19T23:42:17;11.05;;;4.53;;
69280;SDS011;56392;51.082;17.080;2023-09-19T23:47:40;14.13;;;5.82;;
69280;SDS011;56392;51.082;17.080;2023-09-19T23:53:06;15.77;;;6.37;;
69280;SDS011;56392;51.082;17.080;2023-09-19T23:58:32;11.85;;;5.18;;
